sensor_id;sensor_type;location;lat;lon;timestamp;P1;P2;P0
69123;PMS5003;56232;53.384;-2.732;2023-09-07T00:01:09;33;31;
69123;PMS5003;56232;53.384;-2.732;2023-09-07T00:03:34;35;31;
69123;PMS5003;56232;53.384;-2.732;2023-09-07T00:05:59;34;33;
69123;PMS5003;56232;53.384;-2.732;2023-09-07T00:08:25;32;31;
69123;PMS5003;56232;53.384;-2.732;2023-09-07T00:10:50;30;30;
69123;PMS5003;56232;53.384;-2.732;2023-09-07T00:13:15;33;31;
69123;PMS5003;56232;53.384;-2.732;2023-09-07T00:15:41;26;26;
69123;PMS5003;56232;53.384;-2.732;2023-09-07T00:18:06;31;30;
69123;PMS5003;56232;53.384;-2.732;2023-09-07T00:20:31;31;30;
69123;PMS5003;56232;53.384;-2.732;2023-09-07T00:22:56;32;29;
69123;PMS5003;56232;53.384;-2.732;2023-09-07T00:25:22;31;29;
69123;PMS5003;56232;53.384;-2.732;2023-09-07T00:27:48;32;31;
69123;PMS5003;56232;53.384;-2.732;2023-09-07T00:30:14;29;29;
69123;PMS5003;56232;53.384;-2.732;2023-09-07T00:32:39;26;26;
69123;PMS5003;56232;53.384;-2.732;2023-09-07T00:35:05;33;29;
69123;PMS5003;56232;53.384;-2.732;2023-09-07T00:37:30;31;31;
69123;PMS5003;56232;53.384;-2.732;2023-09-07T00:39:55;29;26;
69123;PMS5003;56232;53.384;-2.732;2023-09-07T00:42:21;31;28;
69123;PMS5003;56232;53.384;-2.732;2023-09-07T00:44:47;30;28;
69123;PMS5003;56232;53.384;-2.732;2023-09-07T00:47:12;30;30;
69123;PMS5003;56232;53.384;-2.732;2023-09-07T00:49:37;33;33;
69123;PMS5003;56232;53.384;-2.732;2023-09-07T00:52:04;33;33;
69123;PMS5003;56232;53.384;-2.732;2023-09-07T00:54:28;38;31;
69123;PMS5003;56232;53.384;-2.732;2023-09-07T00:56:53;35;35;
69123;PMS5003;56232;53.384;-2.732;2023-09-07T00:59:18;35;34;
69123;PMS5003;56232;53.384;-2.732;2023-09-07T01:01:44;33;32;
69123;PMS5003;56232;53.384;-2.732;2023-09-07T01:04:09;39;39;
69123;PMS5003;56232;53.384;-2.732;2023-09-07T01:06:35;42;41;
69123;PMS5003;56232;53.384;-2.732;2023-09-07T01:09:03;42;38;
69123;PMS5003;56232;53.384;-2.732;2023-09-07T01:11:26;46;40;
69123;PMS5003;56232;53.384;-2.732;2023-09-07T01:13:51;44;38;
69123;PMS5003;56232;53.384;-2.732;2023-09-07T01:16:16;42;37;
69123;PMS5003;56232;53.384;-2.732;2023-09-07T01:18:42;43;38;
69123;PMS5003;56232;53.384;-2.732;2023-09-07T01:21:08;38;36;
69123;PMS5003;56232;53.384;-2.732;2023-09-07T01:23:33;44;38;
69123;PMS5003;56232;53.384;-2.732;2023-09-07T01:25:58;42;39;
69123;PMS5003;56232;53.384;-2.732;2023-09-07T01:28:23;36;36;
69123;PMS5003;56232;53.384;-2.732;2023-09-07T01:30:49;38;37;
69123;PMS5003;56232;53.384;-2.732;2023-09-07T01:33:14;40;38;
69123;PMS5003;56232;53.384;-2.732;2023-09-07T01:35:39;40;40;
69123;PMS5003;56232;53.384;-2.732;2023-09-07T01:38:04;39;38;
69123;PMS5003;56232;53.384;-2.732;2023-09-07T01:40:29;44;42;
69123;PMS5003;56232;53.384;-2.732;2023-09-07T01:42:55;46;45;
69123;PMS5003;56232;53.384;-2.732;2023-09-07T01:45:21;56;49;
69123;PMS5003;56232;53.384;-2.732;2023-09-07T01:47:46;49;47;
69123;PMS5003;56232;53.384;-2.732;2023-09-07T01:50:12;43;43;
69123;PMS5003;56232;53.384;-2.732;2023-09-07T01:52:37;49;45;
69123;PMS5003;56232;53.384;-2.732;2023-09-07T01:55:03;47;41;
69123;PMS5003;56232;53.384;-2.732;2023-09-07T01:57:28;42;41;
69123;PMS5003;56232;53.384;-2.732;2023-09-07T01:59:53;47;43;
69123;PMS5003;56232;53.384;-2.732;2023-09-07T02:02:18;42;41;
69123;PMS5003;56232;53.384;-2.732;2023-09-07T02:04:43;48;44;
69123;PMS5003;56232;53.384;-2.732;2023-09-07T02:07:08;49;44;
69123;PMS5003;56232;53.384;-2.732;2023-09-07T02:09:34;42;38;
69123;PMS5003;56232;53.384;-2.732;2023-09-07T02:11:59;48;45;
69123;PMS5003;56232;53.384;-2.732;2023-09-07T02:14:25;44;42;
69123;PMS5003;56232;53.384;-2.732;2023-09-07T02:16:50;49;46;
69123;PMS5003;56232;53.384;-2.732;2023-09-07T02:19:16;47;46;
69123;PMS5003;56232;53.384;-2.732;2023-09-07T02:21:42;52;50;
69123;PMS5003;56232;53.384;-2.732;2023-09-07T02:24:07;49;45;
69123;PMS5003;56232;53.384;-2.732;2023-09-07T02:26:33;44;43;
69123;PMS5003;56232;53.384;-2.732;2023-09-07T02:28:58;46;43;
69123;PMS5003;56232;53.384;-2.732;2023-09-07T02:31:24;50;47;
69123;PMS5003;56232;53.384;-2.732;2023-09-07T02:33:49;46;45;
69123;PMS5003;56232;53.384;-2.732;2023-09-07T02:36:15;49;46;
69123;PMS5003;56232;53.384;-2.732;2023-09-07T02:38:40;47;44;
69123;PMS5003;56232;53.384;-2.732;2023-09-07T02:41:05;45;44;
69123;PMS5003;56232;53.384;-2.732;2023-09-07T02:43:31;51;49;
69123;PMS5003;56232;53.384;-2.732;2023-09-07T02:45:57;47;45;
69123;PMS5003;56232;53.384;-2.732;2023-09-07T02:48:22;54;52;
69123;PMS5003;56232;53.384;-2.732;2023-09-07T02:50:48;44;43;
69123;PMS5003;56232;53.384;-2.732;2023-09-07T02:53:13;47;46;
69123;PMS5003;56232;53.384;-2.732;2023-09-07T02:55:39;51;46;
69123;PMS5003;56232;53.384;-2.732;2023-09-07T02:58:04;50;49;
69123;PMS5003;56232;53.384;-2.732;2023-09-07T03:00:29;50;49;
69123;PMS5003;56232;53.384;-2.732;2023-09-07T03:02:55;50;47;
69123;PMS5003;56232;53.384;-2.732;2023-09-07T03:05:20;53;49;
69123;PMS5003;56232;53.384;-2.732;2023-09-07T03:07:46;49;48;
69123;PMS5003;56232;53.384;-2.732;2023-09-07T03:10:11;48;46;
69123;PMS5003;56232;53.384;-2.732;2023-09-07T03:12:36;45;42;
69123;PMS5003;56232;53.384;-2.732;2023-09-07T03:15:02;48;45;
69123;PMS5003;56232;53.384;-2.732;2023-09-07T03:17:27;45;44;
69123;PMS5003;56232;53.384;-2.732;2023-09-07T03:19:52;53;48;
69123;PMS5003;56232;53.384;-2.732;2023-09-07T03:22:17;48;46;
69123;PMS5003;56232;53.384;-2.732;2023-09-07T03:24:42;47;44;
69123;PMS5003;56232;53.384;-2.732;2023-09-07T03:27:08;49;42;
69123;PMS5003;56232;53.384;-2.732;2023-09-07T03:29:33;47;42;
69123;PMS5003;56232;53.384;-2.732;2023-09-07T03:31:59;52;46;
69123;PMS5003;56232;53.384;-2.732;2023-09-07T03:34:24;49;48;
69123;PMS5003;56232;53.384;-2.732;2023-09-07T03:36:49;52;49;
69123;PMS5003;56232;53.384;-2.732;2023-09-07T03:39:15;54;52;
69123;PMS5003;56232;53.384;-2.732;2023-09-07T03:41:40;49;48;
69123;PMS5003;56232;53.384;-2.732;2023-09-07T03:44:05;49;49;
69123;PMS5003;56232;53.384;-2.732;2023-09-07T03:46:31;58;51;
69123;PMS5003;56232;53.384;-2.732;2023-09-07T03:48:56;58;53;
69123;PMS5003;56232;53.384;-2.732;2023-09-07T03:51:22;57;51;
69123;PMS5003;56232;53.384;-2.732;2023-09-07T03:53:47;54;49;
69123;PMS5003;56232;53.384;-2.732;2023-09-07T03:56:12;53;52;
69123;PMS5003;56232;53.384;-2.732;2023-09-07T03:58:38;48;46;
69123;PMS5003;56232;53.384;-2.732;2023-09-07T04:01:04;57;50;
69123;PMS5003;56232;53.384;-2.732;2023-09-07T04:03:29;48;46;
69123;PMS5003;56232;53.384;-2.732;2023-09-07T04:05:54;54;51;
69123;PMS5003;56232;53.384;-2.732;2023-09-07T04:08:20;54;50;
69123;PMS5003;56232;53.384;-2.732;2023-09-07T04:10:45;50;50;
69123;PMS5003;56232;53.384;-2.732;2023-09-07T04:13:11;50;49;
69123;PMS5003;56232;53.384;-2.732;2023-09-07T04:15:41;59;53;
69123;PMS5003;56232;53.384;-2.732;2023-09-07T04:18:02;53;48;
69123;PMS5003;56232;53.384;-2.732;2023-09-07T04:20:27;51;47;
69123;PMS5003;56232;53.384;-2.732;2023-09-07T04:22:53;52;50;
69123;PMS5003;56232;53.384;-2.732;2023-09-07T04:25:19;52;51;
69123;PMS5003;56232;53.384;-2.732;2023-09-07T04:27:44;52;49;
69123;PMS5003;56232;53.384;-2.732;2023-09-07T04:30:10;49;48;
69123;PMS5003;56232;53.384;-2.732;2023-09-07T04:32:35;58;51;
69123;PMS5003;56232;53.384;-2.732;2023-09-07T04:35:01;48;48;
69123;PMS5003;56232;53.384;-2.732;2023-09-07T04:37:26;56;51;
69123;PMS5003;56232;53.384;-2.732;2023-09-07T04:39:52;59;53;
69123;PMS5003;56232;53.384;-2.732;2023-09-07T04:42:17;49;49;
69123;PMS5003;56232;53.384;-2.732;2023-09-07T04:44:43;50;48;
69123;PMS5003;56232;53.384;-2.732;2023-09-07T04:47:08;54;48;
69123;PMS5003;56232;53.384;-2.732;2023-09-07T04:49:34;53;51;
69123;PMS5003;56232;53.384;-2.732;2023-09-07T04:51:59;57;53;
69123;PMS5003;56232;53.384;-2.732;2023-09-07T04:54:25;58;51;
69123;PMS5003;56232;53.384;-2.732;2023-09-07T04:56:51;48;46;
69123;PMS5003;56232;53.384;-2.732;2023-09-07T04:59:17;50;47;
69123;PMS5003;56232;53.384;-2.732;2023-09-07T05:01:42;48;46;
69123;PMS5003;56232;53.384;-2.732;2023-09-07T05:04:08;52;45;
69123;PMS5003;56232;53.384;-2.732;2023-09-07T05:06:33;47;44;
69123;PMS5003;56232;53.384;-2.732;2023-09-07T05:08:59;45;45;
69123;PMS5003;56232;53.384;-2.732;2023-09-07T05:11:24;44;43;
69123;PMS5003;56232;53.384;-2.732;2023-09-07T05:13:49;46;46;
69123;PMS5003;56232;53.384;-2.732;2023-09-07T05:16:15;51;45;
69123;PMS5003;56232;53.384;-2.732;2023-09-07T05:18:41;49;46;
69123;PMS5003;56232;53.384;-2.732;2023-09-07T05:23:31;49;45;
69123;PMS5003;56232;53.384;-2.732;2023-09-07T05:25:56;57;52;
69123;PMS5003;56232;53.384;-2.732;2023-09-07T05:28:22;54;49;
69123;PMS5003;56232;53.384;-2.732;2023-09-07T05:30:46;47;43;
69123;PMS5003;56232;53.384;-2.732;2023-09-07T05:33:12;44;43;
69123;PMS5003;56232;53.384;-2.732;2023-09-07T05:35:37;55;49;
69123;PMS5003;56232;53.384;-2.732;2023-09-07T05:38:03;48;46;
69123;PMS5003;56232;53.384;-2.732;2023-09-07T05:40:28;47;44;
69123;PMS5003;56232;53.384;-2.732;2023-09-07T05:42:53;46;42;
69123;PMS5003;56232;53.384;-2.732;2023-09-07T05:45:19;39;38;
69123;PMS5003;56232;53.384;-2.732;2023-09-07T05:47:44;46;42;
69123;PMS5003;56232;53.384;-2.732;2023-09-07T05:50:09;48;44;
69123;PMS5003;56232;53.384;-2.732;2023-09-07T05:52:34;42;40;
69123;PMS5003;56232;53.384;-2.732;2023-09-07T05:55:00;38;37;
69123;PMS5003;56232;53.384;-2.732;2023-09-07T05:57:25;39;38;
69123;PMS5003;56232;53.384;-2.732;2023-09-07T05:59:50;51;45;
69123;PMS5003;56232;53.384;-2.732;2023-09-07T06:02:15;43;43;
69123;PMS5003;56232;53.384;-2.732;2023-09-07T06:04:41;48;41;
69123;PMS5003;56232;53.384;-2.732;2023-09-07T06:07:07;39;37;
69123;PMS5003;56232;53.384;-2.732;2023-09-07T06:09:32;45;41;
69123;PMS5003;56232;53.384;-2.732;2023-09-07T06:11:58;49;46;
69123;PMS5003;56232;53.384;-2.732;2023-09-07T06:14:23;50;44;
69123;PMS5003;56232;53.384;-2.732;2023-09-07T06:16:49;42;39;
69123;PMS5003;56232;53.384;-2.732;2023-09-07T06:19:14;49;46;
69123;PMS5003;56232;53.384;-2.732;2023-09-07T06:21:39;48;44;
69123;PMS5003;56232;53.384;-2.732;2023-09-07T06:24:05;51;46;
69123;PMS5003;56232;53.384;-2.732;2023-09-07T06:26:30;49;47;
69123;PMS5003;56232;53.384;-2.732;2023-09-07T06:28:55;47;43;
69123;PMS5003;56232;53.384;-2.732;2023-09-07T06:31:21;50;44;
69123;PMS5003;56232;53.384;-2.732;2023-09-07T06:33:46;44;40;
69123;PMS5003;56232;53.384;-2.732;2023-09-07T06:36:12;49;45;
69123;PMS5003;56232;53.384;-2.732;2023-09-07T06:38:37;50;44;
69123;PMS5003;56232;53.384;-2.732;2023-09-07T06:41:03;44;42;
69123;PMS5003;56232;53.384;-2.732;2023-09-07T06:43:28;48;44;
69123;PMS5003;56232;53.384;-2.732;2023-09-07T06:45:53;43;41;
69123;PMS5003;56232;53.384;-2.732;2023-09-07T06:48:18;43;42;
69123;PMS5003;56232;53.384;-2.732;2023-09-07T06:50:44;46;42;
69123;PMS5003;56232;53.384;-2.732;2023-09-07T06:53:09;40;39;
69123;PMS5003;56232;53.384;-2.732;2023-09-07T06:55:34;45;43;
69123;PMS5003;56232;53.384;-2.732;2023-09-07T06:57:59;36;35;
69123;PMS5003;56232;53.384;-2.732;2023-09-07T07:00:25;45;42;
69123;PMS5003;56232;53.384;-2.732;2023-09-07T07:02:50;47;44;
69123;PMS5003;56232;53.384;-2.732;2023-09-07T07:05:16;57;49;
69123;PMS5003;56232;53.384;-2.732;2023-09-07T07:07:41;46;40;
69123;PMS5003;56232;53.384;-2.732;2023-09-07T07:10:06;39;37;
69123;PMS5003;56232;53.384;-2.732;2023-09-07T07:12:31;50;46;
69123;PMS5003;56232;53.384;-2.732;2023-09-07T07:14:56;54;50;
69123;PMS5003;56232;53.384;-2.732;2023-09-07T07:17:22;51;47;
69123;PMS5003;56232;53.384;-2.732;2023-09-07T07:19:47;52;48;
69123;PMS5003;56232;53.384;-2.732;2023-09-07T07:22:12;57;50;
69123;PMS5003;56232;53.384;-2.732;2023-09-07T07:24:38;54;49;
69123;PMS5003;56232;53.384;-2.732;2023-09-07T07:27:04;50;49;
69123;PMS5003;56232;53.384;-2.732;2023-09-07T07:29:29;56;52;
69123;PMS5003;56232;53.384;-2.732;2023-09-07T07:31:54;51;46;
69123;PMS5003;56232;53.384;-2.732;2023-09-07T07:34:19;53;48;
69123;PMS5003;56232;53.384;-2.732;2023-09-07T07:36:45;52;46;
69123;PMS5003;56232;53.384;-2.732;2023-09-07T07:39:10;48;45;
69123;PMS5003;56232;53.384;-2.732;2023-09-07T07:41:35;48;47;
69123;PMS5003;56232;53.384;-2.732;2023-09-07T07:44:00;50;45;
69123;PMS5003;56232;53.384;-2.732;2023-09-07T07:46:26;47;44;
69123;PMS5003;56232;53.384;-2.732;2023-09-07T07:48:51;45;42;
69123;PMS5003;56232;53.384;-2.732;2023-09-07T07:51:16;48;44;
69123;PMS5003;56232;53.384;-2.732;2023-09-07T07:53:42;47;46;
69123;PMS5003;56232;53.384;-2.732;2023-09-07T07:58:32;55;49;
69123;PMS5003;56232;53.384;-2.732;2023-09-07T08:00:58;42;41;
69123;PMS5003;56232;53.384;-2.732;2023-09-07T08:03:24;53;48;
69123;PMS5003;56232;53.384;-2.732;2023-09-07T08:05:49;51;46;
69123;PMS5003;56232;53.384;-2.732;2023-09-07T08:08:14;47;46;
69123;PMS5003;56232;53.384;-2.732;2023-09-07T08:10:39;52;48;
69123;PMS5003;56232;53.384;-2.732;2023-09-07T08:13:05;58;53;
69123;PMS5003;56232;53.384;-2.732;2023-09-07T08:15:31;53;48;
69123;PMS5003;56232;53.384;-2.732;2023-09-07T08:17:56;53;49;
69123;PMS5003;56232;53.384;-2.732;2023-09-07T08:20:21;48;43;
69123;PMS5003;56232;53.384;-2.732;2023-09-07T08:22:47;57;52;
69123;PMS5003;56232;53.384;-2.732;2023-09-07T08:25:12;47;47;
69123;PMS5003;56232;53.384;-2.732;2023-09-07T08:27:37;53;47;
69123;PMS5003;56232;53.384;-2.732;2023-09-07T08:30:03;48;46;
69123;PMS5003;56232;53.384;-2.732;2023-09-07T08:32:28;48;47;
69123;PMS5003;56232;53.384;-2.732;2023-09-07T08:34:53;46;45;
69123;PMS5003;56232;53.384;-2.732;2023-09-07T08:37:19;55;52;
69123;PMS5003;56232;53.384;-2.732;2023-09-07T08:39:44;46;44;
69123;PMS5003;56232;53.384;-2.732;2023-09-07T08:42:10;47;42;
69123;PMS5003;56232;53.384;-2.732;2023-09-07T08:44:36;52;46;
69123;PMS5003;56232;53.384;-2.732;2023-09-07T08:47:01;47;46;
69123;PMS5003;56232;53.384;-2.732;2023-09-07T08:49:26;48;44;
69123;PMS5003;56232;53.384;-2.732;2023-09-07T08:51:51;51;46;
69123;PMS5003;56232;53.384;-2.732;2023-09-07T08:54:17;53;51;
69123;PMS5003;56232;53.384;-2.732;2023-09-07T08:56:42;47;46;
69123;PMS5003;56232;53.384;-2.732;2023-09-07T08:59:08;55;53;
69123;PMS5003;56232;53.384;-2.732;2023-09-07T09:01:34;52;47;
69123;PMS5003;56232;53.384;-2.732;2023-09-07T09:03:59;48;46;
69123;PMS5003;56232;53.384;-2.732;2023-09-07T09:06:24;55;53;
69123;PMS5003;56232;53.384;-2.732;2023-09-07T09:08:50;55;54;
69123;PMS5003;56232;53.384;-2.732;2023-09-07T09:11:16;50;47;
69123;PMS5003;56232;53.384;-2.732;2023-09-07T09:13:41;58;53;
69123;PMS5003;56232;53.384;-2.732;2023-09-07T09:16:06;53;48;
69123;PMS5003;56232;53.384;-2.732;2023-09-07T09:18:31;51;48;
69123;PMS5003;56232;53.384;-2.732;2023-09-07T09:20:57;56;49;
69123;PMS5003;56232;53.384;-2.732;2023-09-07T09:23:22;57;55;
69123;PMS5003;56232;53.384;-2.732;2023-09-07T09:25:48;59;53;
69123;PMS5003;56232;53.384;-2.732;2023-09-07T09:28:13;51;46;
69123;PMS5003;56232;53.384;-2.732;2023-09-07T09:30:38;45;43;
69123;PMS5003;56232;53.384;-2.732;2023-09-07T09:33:05;47;42;
69123;PMS5003;56232;53.384;-2.732;2023-09-07T09:35:29;48;44;
69123;PMS5003;56232;53.384;-2.732;2023-09-07T09:37:55;40;38;
69123;PMS5003;56232;53.384;-2.732;2023-09-07T09:40:20;41;38;
69123;PMS5003;56232;53.384;-2.732;2023-09-07T09:42:45;40;39;
69123;PMS5003;56232;53.384;-2.732;2023-09-07T09:45:11;39;38;
69123;PMS5003;56232;53.384;-2.732;2023-09-07T09:47:38;34;34;
69123;PMS5003;56232;53.384;-2.732;2023-09-07T09:50:02;40;39;
69123;PMS5003;56232;53.384;-2.732;2023-09-07T09:52:27;42;41;
69123;PMS5003;56232;53.384;-2.732;2023-09-07T09:54:52;37;36;
69123;PMS5003;56232;53.384;-2.732;2023-09-07T09:57:18;39;35;
69123;PMS5003;56232;53.384;-2.732;2023-09-07T09:59:44;35;35;
69123;PMS5003;56232;53.384;-2.732;2023-09-07T10:02:09;35;33;
69123;PMS5003;56232;53.384;-2.732;2023-09-07T10:04:34;38;37;
69123;PMS5003;56232;53.384;-2.732;2023-09-07T10:06:59;39;36;
69123;PMS5003;56232;53.384;-2.732;2023-09-07T10:09:28;36;34;
69123;PMS5003;56232;53.384;-2.732;2023-09-07T10:11:51;39;37;
69123;PMS5003;56232;53.384;-2.732;2023-09-07T10:14:16;37;36;
69123;PMS5003;56232;53.384;-2.732;2023-09-07T10:16:42;34;34;
69123;PMS5003;56232;53.384;-2.732;2023-09-07T10:21:33;31;31;
69123;PMS5003;56232;53.384;-2.732;2023-09-07T10:23:58;37;36;
69123;PMS5003;56232;53.384;-2.732;2023-09-07T10:26:24;32;32;
69123;PMS5003;56232;53.384;-2.732;2023-09-07T10:31:16;34;32;
69123;PMS5003;56232;53.384;-2.732;2023-09-07T10:33:41;38;37;
69123;PMS5003;56232;53.384;-2.732;2023-09-07T10:36:06;31;31;
69123;PMS5003;56232;53.384;-2.732;2023-09-07T10:38:32;29;29;
69123;PMS5003;56232;53.384;-2.732;2023-09-07T10:40:58;31;30;
69123;PMS5003;56232;53.384;-2.732;2023-09-07T10:43:24;36;35;
69123;PMS5003;56232;53.384;-2.732;2023-09-07T10:45:49;40;40;
69123;PMS5003;56232;53.384;-2.732;2023-09-07T10:48:15;39;39;
69123;PMS5003;56232;53.384;-2.732;2023-09-07T10:50:43;35;35;
69123;PMS5003;56232;53.384;-2.732;2023-09-07T10:53:06;31;30;
69123;PMS5003;56232;53.384;-2.732;2023-09-07T10:55:35;30;30;
69123;PMS5003;56232;53.384;-2.732;2023-09-07T10:57:57;30;29;
69123;PMS5003;56232;53.384;-2.732;2023-09-07T11:00:23;27;26;
69123;PMS5003;56232;53.384;-2.732;2023-09-07T11:02:48;31;31;
69123;PMS5003;56232;53.384;-2.732;2023-09-07T11:05:14;32;31;
69123;PMS5003;56232;53.384;-2.732;2023-09-07T11:07:40;30;30;
69123;PMS5003;56232;53.384;-2.732;2023-09-07T11:10:06;31;28;
69123;PMS5003;56232;53.384;-2.732;2023-09-07T11:12:35;33;30;
69123;PMS5003;56232;53.384;-2.732;2023-09-07T11:14:56;30;29;
69123;PMS5003;56232;53.384;-2.732;2023-09-07T11:17:25;31;30;
69123;PMS5003;56232;53.384;-2.732;2023-09-07T11:19:51;31;28;
69123;PMS5003;56232;53.384;-2.732;2023-09-07T11:22:13;34;33;
69123;PMS5003;56232;53.384;-2.732;2023-09-07T11:24:39;28;28;
69123;PMS5003;56232;53.384;-2.732;2023-09-07T11:27:05;28;26;
69123;PMS5003;56232;53.384;-2.732;2023-09-07T11:29:30;30;30;
69123;PMS5003;56232;53.384;-2.732;2023-09-07T11:32:04;28;28;
69123;PMS5003;56232;53.384;-2.732;2023-09-07T11:34:21;30;29;
69123;PMS5003;56232;53.384;-2.732;2023-09-07T11:36:46;29;28;
69123;PMS5003;56232;53.384;-2.732;2023-09-07T11:39:12;29;29;
69123;PMS5003;56232;53.384;-2.732;2023-09-07T11:41:37;29;29;
69123;PMS5003;56232;53.384;-2.732;2023-09-07T11:44:08;32;30;
69123;PMS5003;56232;53.384;-2.732;2023-09-07T11:46:28;26;26;
69123;PMS5003;56232;53.384;-2.732;2023-09-07T11:48:54;28;27;
69123;PMS5003;56232;53.384;-2.732;2023-09-07T11:51:19;24;24;
69123;PMS5003;56232;53.384;-2.732;2023-09-07T11:53:44;24;24;
69123;PMS5003;56232;53.384;-2.732;2023-09-07T11:56:10;23;22;
69123;PMS5003;56232;53.384;-2.732;2023-09-07T11:58:35;29;28;
69123;PMS5003;56232;53.384;-2.732;2023-09-07T12:01:01;25;25;
69123;PMS5003;56232;53.384;-2.732;2023-09-07T12:03:26;30;29;
69123;PMS5003;56232;53.384;-2.732;2023-09-07T12:05:51;29;27;
69123;PMS5003;56232;53.384;-2.732;2023-09-07T12:08:16;29;28;
69123;PMS5003;56232;53.384;-2.732;2023-09-07T12:10:42;30;28;
69123;PMS5003;56232;53.384;-2.732;2023-09-07T12:13:08;35;33;
69123;PMS5003;56232;53.384;-2.732;2023-09-07T12:15:34;27;26;
69123;PMS5003;56232;53.384;-2.732;2023-09-07T12:17:59;24;24;
69123;PMS5003;56232;53.384;-2.732;2023-09-07T12:20:24;24;24;
69123;PMS5003;56232;53.384;-2.732;2023-09-07T12:22:50;24;24;
69123;PMS5003;56232;53.384;-2.732;2023-09-07T12:25:16;25;25;
69123;PMS5003;56232;53.384;-2.732;2023-09-07T12:27:41;27;26;
69123;PMS5003;56232;53.384;-2.732;2023-09-07T12:30:07;25;25;
69123;PMS5003;56232;53.384;-2.732;2023-09-07T12:32:32;27;26;
69123;PMS5003;56232;53.384;-2.732;2023-09-07T12:34:58;26;24;
69123;PMS5003;56232;53.384;-2.732;2023-09-07T12:37:23;32;30;
69123;PMS5003;56232;53.384;-2.732;2023-09-07T12:39:49;30;28;
69123;PMS5003;56232;53.384;-2.732;2023-09-07T12:42:14;29;28;
69123;PMS5003;56232;53.384;-2.732;2023-09-07T12:44:40;23;22;
69123;PMS5003;56232;53.384;-2.732;2023-09-07T12:47:07;21;20;
69123;PMS5003;56232;53.384;-2.732;2023-09-07T12:49:31;22;22;
69123;PMS5003;56232;53.384;-2.732;2023-09-07T12:51:56;17;16;
69123;PMS5003;56232;53.384;-2.732;2023-09-07T12:54:22;17;16;
69123;PMS5003;56232;53.384;-2.732;2023-09-07T12:56:47;16;16;
69123;PMS5003;56232;53.384;-2.732;2023-09-07T12:59:12;17;17;
69123;PMS5003;56232;53.384;-2.732;2023-09-07T13:01:38;18;18;
69123;PMS5003;56232;53.384;-2.732;2023-09-07T13:04:03;18;17;
69123;PMS5003;56232;53.384;-2.732;2023-09-07T13:06:28;17;16;
69123;PMS5003;56232;53.384;-2.732;2023-09-07T13:08:54;17;17;
69123;PMS5003;56232;53.384;-2.732;2023-09-07T13:11:19;22;21;
69123;PMS5003;56232;53.384;-2.732;2023-09-07T13:13:45;19;18;
69123;PMS5003;56232;53.384;-2.732;2023-09-07T13:16:10;19;19;
69123;PMS5003;56232;53.384;-2.732;2023-09-07T13:18:35;18;17;
69123;PMS5003;56232;53.384;-2.732;2023-09-07T13:21:01;18;17;
69123;PMS5003;56232;53.384;-2.732;2023-09-07T13:23:26;22;22;
69123;PMS5003;56232;53.384;-2.732;2023-09-07T13:25:51;19;19;
69123;PMS5003;56232;53.384;-2.732;2023-09-07T13:28:16;17;17;
69123;PMS5003;56232;53.384;-2.732;2023-09-07T13:30:41;19;19;
69123;PMS5003;56232;53.384;-2.732;2023-09-07T13:33:07;18;18;
69123;PMS5003;56232;53.384;-2.732;2023-09-07T13:35:33;16;16;
69123;PMS5003;56232;53.384;-2.732;2023-09-07T13:37:58;18;18;
69123;PMS5003;56232;53.384;-2.732;2023-09-07T13:40:24;17;17;
69123;PMS5003;56232;53.384;-2.732;2023-09-07T13:42:49;16;16;
69123;PMS5003;56232;53.384;-2.732;2023-09-07T13:45:14;20;20;
69123;PMS5003;56232;53.384;-2.732;2023-09-07T13:47:40;15;15;
69123;PMS5003;56232;53.384;-2.732;2023-09-07T13:50:06;17;17;
69123;PMS5003;56232;53.384;-2.732;2023-09-07T13:52:31;16;15;
69123;PMS5003;56232;53.384;-2.732;2023-09-07T13:54:57;14;14;
69123;PMS5003;56232;53.384;-2.732;2023-09-07T13:57:22;16;16;
69123;PMS5003;56232;53.384;-2.732;2023-09-07T13:59:47;15;14;
69123;PMS5003;56232;53.384;-2.732;2023-09-07T14:02:12;16;15;
69123;PMS5003;56232;53.384;-2.732;2023-09-07T14:04:37;13;13;
69123;PMS5003;56232;53.384;-2.732;2023-09-07T14:07:03;18;17;
69123;PMS5003;56232;53.384;-2.732;2023-09-07T14:09:28;13;13;
69123;PMS5003;56232;53.384;-2.732;2023-09-07T14:11:53;11;11;
69123;PMS5003;56232;53.384;-2.732;2023-09-07T14:14:19;14;14;
69123;PMS5003;56232;53.384;-2.732;2023-09-07T14:16:44;14;13;
69123;PMS5003;56232;53.384;-2.732;2023-09-07T14:19:10;17;16;
69123;PMS5003;56232;53.384;-2.732;2023-09-07T14:21:35;14;14;
69123;PMS5003;56232;53.384;-2.732;2023-09-07T14:24:00;14;13;
69123;PMS5003;56232;53.384;-2.732;2023-09-07T14:26:25;16;16;
69123;PMS5003;56232;53.384;-2.732;2023-09-07T14:28:51;15;14;
69123;PMS5003;56232;53.384;-2.732;2023-09-07T14:31:16;14;14;
69123;PMS5003;56232;53.384;-2.732;2023-09-07T14:33:42;15;15;
69123;PMS5003;56232;53.384;-2.732;2023-09-07T14:36:08;13;13;
69123;PMS5003;56232;53.384;-2.732;2023-09-07T14:38:33;16;15;
69123;PMS5003;56232;53.384;-2.732;2023-09-07T14:40:58;14;14;
69123;PMS5003;56232;53.384;-2.732;2023-09-07T14:43:24;18;16;
69123;PMS5003;56232;53.384;-2.732;2023-09-07T14:45:49;14;14;
69123;PMS5003;56232;53.384;-2.732;2023-09-07T14:48:15;16;15;
69123;PMS5003;56232;53.384;-2.732;2023-09-07T14:50:40;12;12;
69123;PMS5003;56232;53.384;-2.732;2023-09-07T14:53:06;16;15;
69123;PMS5003;56232;53.384;-2.732;2023-09-07T14:55:31;15;15;
69123;PMS5003;56232;53.384;-2.732;2023-09-07T14:57:57;18;18;
69123;PMS5003;56232;53.384;-2.732;2023-09-07T15:00:23;15;15;
69123;PMS5003;56232;53.384;-2.732;2023-09-07T15:02:48;17;17;
69123;PMS5003;56232;53.384;-2.732;2023-09-07T15:05:14;16;16;
69123;PMS5003;56232;53.384;-2.732;2023-09-07T15:07:39;16;15;
69123;PMS5003;56232;53.384;-2.732;2023-09-07T15:10:05;16;15;
69123;PMS5003;56232;53.384;-2.732;2023-09-07T15:12:30;18;17;
69123;PMS5003;56232;53.384;-2.732;2023-09-07T15:14:56;14;14;
69123;PMS5003;56232;53.384;-2.732;2023-09-07T15:17:21;20;20;
69123;PMS5003;56232;53.384;-2.732;2023-09-07T15:19:46;17;16;
69123;PMS5003;56232;53.384;-2.732;2023-09-07T15:22:12;17;17;
69123;PMS5003;56232;53.384;-2.732;2023-09-07T15:24:38;18;17;
69123;PMS5003;56232;53.384;-2.732;2023-09-07T15:27:07;20;19;
69123;PMS5003;56232;53.384;-2.732;2023-09-07T15:29:28;17;16;
69123;PMS5003;56232;53.384;-2.732;2023-09-07T15:31:54;16;15;
69123;PMS5003;56232;53.384;-2.732;2023-09-07T15:34:19;17;17;
69123;PMS5003;56232;53.384;-2.732;2023-09-07T15:36:45;16;16;
69123;PMS5003;56232;53.384;-2.732;2023-09-07T15:39:10;16;16;
69123;PMS5003;56232;53.384;-2.732;2023-09-07T15:41:35;18;17;
69123;PMS5003;56232;53.384;-2.732;2023-09-07T15:44:00;18;17;
69123;PMS5003;56232;53.384;-2.732;2023-09-07T15:46:26;19;19;
69123;PMS5003;56232;53.384;-2.732;2023-09-07T15:48:52;18;18;
69123;PMS5003;56232;53.384;-2.732;2023-09-07T15:51:17;18;17;
69123;PMS5003;56232;53.384;-2.732;2023-09-07T15:53:42;15;14;
69123;PMS5003;56232;53.384;-2.732;2023-09-07T15:56:08;17;17;
69123;PMS5003;56232;53.384;-2.732;2023-09-07T15:58:33;18;18;